Ashdown, AR

9:18 PM CST on December 04, 2016 (GMT -0600)
Town and Country | | Change Station

Elev 341 ft 33.67 °N, 94.10 °W | Updated 4 minutes ago

Overcast
Overcast
48.4 °F
Feels Like 48 °F
N
0.0
Wind Variable Wind from NNE
Gusts 0.0 mph

Today
High -- | Low -- °F
--% Chance of Precip.
Yesterday
High -- | Low -- °F
Precip. -- in
Pressure 30.05 in
Visibility 10.0 miles
Clouds Overcast 1900 ft
Windchill 48 °F
Dew Point 36 °F
Humidity 63%
Rainfall 0.01 in
Snow Depth Not available.
7:05 AM 5:07 PM
Waxing Crescent, 27% visible
METAR KTXK 050253Z 04005KT 10SM OVC019 09/06 A3005 RMK AO2 SLP175 T00890061 53008 $
Pressure 30.05 in
Visibility 10.0 miles
Clouds Overcast 1900 ft
Windchill 48 °F
Dew Point 36 °F
Humidity 63%
Rainfall 0.01 in
Snow Depth Not available.
7:05 AM 5:07 PM
Waxing Crescent, 27% visible
METAR KTXK 050253Z 04005KT 10SM OVC019 09/06 A3005 RMK AO2 SLP175 T00890061 53008 $

10-Day Weather Forecast

Almanac

Astronomy

Dec. 04, 2016 Rise Set
Actual Time
Civil Twilight
Nautical Twilight
Astronomical Twilight
Moon
Length of Visible Light
Length of Day
Tomorrow will be .
, % of the Moon is Illuminated

Today's Extremes

State Highs State Lows

Community

WunderPhotos

Upload Photos

1,955,752 photos uploaded!

WunderBlog® & News

Nearby

Air Quality

  Air Quality AQ Index Pollutant
Not available.

Snow Depth

Station Depth Elevation

Earthquake Activity

City Distance Mag. Time & Date
Minimum magnitude displayed is 2.5.

Coastal Water Temperatures

Place Temperature

Stations

Nearby Weather Stations

Station Location Temp. Windchill Dew Point Humidity Wind Precip. Elev Updated Type
                   

Watches & Warnings

There are currently no watches in effect.